Latest Weather Observations for Telfer

IDW60801

Issued at 11:23 am WST Sunday 16 December 2018 (issued every 10 minutes, with the page automatically refreshed every 10 minutes)

About weather observations | Map of weather stations | Latest weather observations for WA | Other Formats
Station Details ID: 013030 Name: TELFER AERO Lat: -21.71 Lon: 122.23 Height: 291.9 m
Data from the previous 72 hours. | See also: Recent months at Telfer
Date/Time
WST
Temp
°C
App
Temp
°C
Dew
Point
°C
Rel
Hum
%
Delta-T
°C
Wind Press
QNH
hPa
Press
MSL
hPa
Rain since
9am
mm
Dir  Spd
km/h
Gust
km/h
Spd
kts
Gust
kts
16/11:00am 36.4 34.8 16.0 29 13.1 NW 19 33 10 18 1004.7 1002.2 0.0
16/10:30am 35.7 33.9 15.9 30 12.7 WNW 20 28 11 15 1005.1 1002.6 0.0
16/10:00am 33.9 32.4 16.7 35 11.1 WNW 20 32 11 17 1005.4 1003.0 0.0
16/09:30am 32.9 32.4 17.9 41 9.8 NW 17 24 9 13 1005.6 1003.2 0.0
16/09:00am 32.0 31.3 18.2 43 9.0 NW 19 30 10 16 1005.7 1003.3 0.0
16/08:30am 30.2 29.6 18.9 50 7.4 NW 20 32 11 17 1005.8 1003.4 0.0
16/08:00am 28.5 27.8 19.4 57 6.0 NW 22 30 12 16 1005.8 1003.4 0.0
16/07:30am 27.5 26.7 19.3 61 5.4 NW 22 32 12 17 1005.7 1003.3 0.0
16/07:00am 26.7 25.5 19.3 64 4.8 NW 24 32 13 17 1005.6 1003.2 0.0
16/06:30am 25.7 25.3 19.3 67 4.2 WNW 20 30 11 16 1005.4 1003.0 0.0
16/06:00am 25.1 25.2 19.2 70 3.8 NW 17 26 9 14 1005.1 1002.6 0.0
16/05:30am 24.5 25.5 18.7 70 3.7 NW 11 17 6 9 1004.7 1002.2 0.0
16/05:00am 24.3 24.7 18.2 68 3.9 NW 13 20 7 11 1004.3 1001.8 0.0
16/04:30am 24.6 24.6 18.1 67 4.1 NW 15 20 8 11 1003.9 1001.4 0.0
16/04:00am 25.1 24.8 18.3 66 4.4 NW 17 22 9 12 1003.7 1001.2 0.0
16/03:30am 25.3 24.6 18.2 64 4.5 NW 19 24 10 13 1003.5 1001.0 0.0
16/03:00am 25.6 24.9 18.3 64 4.7 NW 19 24 10 13 1003.2 1000.7 0.0
16/02:30am 26.0 25.4 17.6 60 5.3 NW 17 26 9 14 1002.8 1000.3 0.0
16/02:00am 26.7 25.9 17.2 56 6.0 NW 17 26 9 14 1002.7 1000.2 0.0
16/01:30am 27.5 26.0 16.8 52 6.7 NW 20 28 11 15 1002.8 1000.3 0.0
16/01:00am 28.2 26.6 16.5 49 7.4 NW 20 28 11 15 1002.9 1000.4 0.0
16/12:30am 28.9 27.1 16.1 46 8.0 NW 20 28 11 15 1003.0 1000.5 0.0
16/12:00am 29.6 28.1 16.8 46 8.2 NW 20 30 11 16 1003.2 1000.7 0.0
 
Date/Time
WST
Temp
°C
App
Temp
°C
Dew
Point
°C
Rel
Hum
%
Delta-T
°C
Wind Press
QNH
hPa
Press
MSL
hPa
Rain since
9am
mm
Dir  Spd
km/h
Gust
km/h
Spd
kts
Gust
kts
15/11:30pm 30.3 29.1 17.4 46 8.3 NNW 20 28 11 15 1003.2 1000.7 0.0
15/11:00pm 31.3 30.0 17.2 42 9.1 NNW 20 30 11 16 1003.3 1000.8 0.0
15/10:30pm 32.6 30.8 16.0 36 10.5 NNW 20 30 11 16 1003.4 1000.9 0.0
15/10:00pm 33.7 31.4 14.7 32 11.9 NW 20 30 11 16 1003.2 1000.7 0.0
15/09:30pm 34.8 32.1 13.6 28 13.1 NNW 20 30 11 16 1003.0 1000.5 0.0
15/09:00pm 35.9 33.2 12.8 25 14.2 NW 19 26 10 14 1002.7 1000.2 0.0
15/08:30pm 36.9 34.0 12.4 23 15.0 NW 19 24 10 13 1002.1 999.6 0.0
15/08:00pm 37.6 34.6 10.8 20 16.1 NNW 17 28 9 15 1001.7 999.2 0.0
15/07:30pm 37.3 34.2 7.3 16 17.0 NW 13 15 7 8 1001.3 998.8 0.0
15/07:00pm 39.1 35.9 6.7 14 18.5 NW 13 17 7 9 1000.9 998.4 0.0
15/06:30pm 40.3 36.3 6.6 13 19.2 NW 17 24 9 13 1000.7 998.2 0.0
15/06:00pm 41.6 36.1 7.6 13 19.8 WNW 26 33 14 18 1000.4 997.9 0.0
15/05:30pm 41.8 37.4 8.8 14 19.5 NW 22 33 12 18 1000.1 997.6 0.0
15/05:00pm 42.0 38.0 9.0 14 19.7 NW 20 35 11 19 1000.0 997.5 0.0
15/04:30pm 41.6 37.2 11.6 17 18.4 NNW 26 44 14 24 1000.1 997.6 0.0
15/04:03pm 42.1 37.7 12.9 18 18.3 NNW 28 50 15 27 1000.1 997.6 0.0
15/04:00pm 42.2 38.2 12.9 18 18.4 NNW 26 50 14 27 1000.1 997.6 0.0
15/03:30pm 42.4 38.4 13.1 18 18.4 NW 26 43 14 23 1000.3 997.8 0.0
15/03:00pm 41.9 38.2 12.7 18 18.3 NNW 24 37 13 20 1000.5 998.0 0.0
15/02:30pm 42.6 38.7 13.3 18 18.5 NW 26 41 14 22 1000.9 998.4 0.0
15/02:00pm 42.0 38.3 12.8 18 18.3 NNW 24 41 13 22 1001.2 998.7 0.0
15/01:30pm 43.3 40.4 12.9 17 19.1 NNW 20 35 11 19 1001.4 998.9 0.0
15/01:00pm 42.4 39.8 13.9 19 18.2 NNW 20 39 11 21 1001.9 999.4 0.0
15/12:30pm 42.1 39.5 13.7 19 18.0 NNW 20 35 11 19 1002.4 999.9 0.0
15/12:00pm 41.4 39.1 14.7 21 17.1 N 20 30 11 16 1002.8 1000.3 0.0
15/11:30am 40.3 37.9 13.8 21 16.7 N 19 28 10 15 1003.4 1000.9 0.0
15/11:00am 39.8 37.9 14.1 22 16.3 N 17 22 9 12 1003.9 1001.4 0.0
15/10:30am 39.0 37.5 14.1 23 15.7 N 15 30 8 16 1004.4 1001.9 0.0
15/10:00am 38.5 34.8 6.3 14 18.2 ENE 15 28 8 15 1004.9 1002.4 0.0
15/09:30am 37.7 33.3 4.6 13 18.1 ENE 17 28 9 15 1005.4 1003.0 0.0
15/09:00am 36.4 31.2 3.6 13 17.6 ENE 20 26 11 14 1006.0 1003.5 0.0
15/08:30am 36.2 30.8 1.1 11 18.0 ENE 19 30 10 16 1006.2 1003.7 0.0
15/08:00am 34.6 29.0 1.1 12 17.1 ENE 20 28 11 15 1006.4 1003.9 0.0
15/07:30am 33.5 27.9 1.3 13 16.3 E 20 28 11 15 1006.6 1004.1 0.0
15/07:00am 32.3 27.2 4.2 17 14.9 E 20 28 11 15 1006.4 1003.9 0.0
15/06:30am 31.3 26.1 2.5 16 14.7 E 19 22 10 12 1006.3 1003.8 0.0
15/06:00am 29.1 25.3 3.9 20 13.0 ESE 13 15 7 8 1006.2 1003.7 0.0
15/05:30am 26.9 23.2 4.6 24 11.5 ESE 13 17 7 9 1006.0 1003.5 0.0
15/05:00am 26.7 23.0 4.5 24 11.4 SE 13 15 7 8 1005.6 1003.2 0.0
15/04:30am 27.5 24.6 6.3 26 11.3 ESE 11 13 6 7 1005.1 1002.6 0.0
15/04:00am 27.0 24.6 6.9 28 10.8 SE 9 11 5 6 1004.9 1002.4 0.0
15/03:30am 27.2 25.1 6.6 27 11.0 NE 7 9 4 5 1004.8 1002.3 0.0
15/03:00am 27.1 24.6 6.5 27 11.0 ESE 9 13 5 7 1004.6 1002.1 0.0
15/02:30am 29.3 27.2 6.7 24 12.2 SE 7 9 4 5 1004.6 1002.1 0.0
15/02:00am 29.4 27.4 6.1 23 12.5 NNE 6 9 3 5 1004.8 1002.3 0.0
15/01:30am 30.1 27.9 6.1 22 12.9 NE 7 9 4 5 1004.8 1002.3 0.0
15/01:00am 30.2 27.0 6.8 23 12.8 NNW 13 20 7 11 1005.0 1002.5 0.0
15/12:30am 30.2 29.0 8.0 25 12.3 NE 4 6 2 3 1004.8 1002.3 0.0
15/12:00am 30.8 27.8 7.9 24 12.8 SE 13 15 7 8 1004.7 1002.2 0.0
 
Date/Time
WST
Temp
°C
App
Temp
°C
Dew
Point
°C
Rel
Hum
%
Delta-T
°C
Wind Press
QNH
hPa
Press
MSL
hPa
Rain since
9am
mm
Dir  Spd
km/h
Gust
km/h
Spd
kts
Gust
kts
14/11:30pm 30.9 27.7 8.6 25 12.5 SE 15 17 8 9 1004.9 1002.4 0.0
14/11:00pm 31.3 28.1 8.3 24 12.9 SE 15 17 8 9 1005.2 1002.7 0.0
14/10:30pm 32.0 28.8 8.3 23 13.3 SE 15 17 8 9 1005.4 1003.0 0.0
14/10:00pm 32.5 29.2 8.0 22 13.8 SE 15 17 8 9 1005.5 1003.1 0.0
14/09:30pm 33.2 30.2 7.9 21 14.2 SE 13 15 7 8 1005.6 1003.2 0.0
14/09:00pm 33.4 30.9 8.1 21 14.3 SE 11 15 6 8 1005.6 1003.2 0.0
14/08:30pm 33.8 31.2 7.7 20 14.7 SE 11 13 6 7 1005.5 1003.1 0.0
14/08:00pm 34.8 32.2 7.8 19 15.3 SE 11 13 6 7 1005.3 1002.8 0.0
14/07:30pm 35.8 33.4 7.0 17 16.2 SE 9 13 5 7 1005.2 1002.7 0.0
14/07:00pm 36.5 34.4 6.6 16 16.8 ESE 7 9 4 5 1005.1 1002.6 0.0
14/06:30pm 37.9 35.2 5.8 14 17.9 E 9 11 5 6 1004.9 1002.4 0.0
14/06:00pm 39.3 36.0 4.7 12 19.1 ESE 11 13 6 7 1004.7 1002.2 0.0
14/05:30pm 39.7 36.5 5.0 12 19.2 ESE 11 19 6 10 1004.4 1001.9 0.0
14/05:00pm 40.3 36.9 4.2 11 19.9 SSE 11 20 6 11 1004.3 1001.8 0.0
14/04:30pm 40.5 36.8 4.3 11 19.9 S 13 20 7 11 1004.2 1001.7 0.0
14/04:00pm 41.6 38.2 3.8 10 20.9 ESE 11 26 6 14 1004.1 1001.6 0.0
14/03:30pm 41.1 36.4 3.4 10 20.6 ESE 17 26 9 14 1004.3 1001.8 0.0
14/03:00pm 40.6 35.9 3.1 10 20.4 SE 17 26 9 14 1004.4 1001.9 0.0
14/02:30pm 40.8 36.5 3.2 10 20.4 ESE 15 32 8 17 1004.4 1001.9 0.0
14/02:00pm 40.6 35.3 3.1 10 20.4 ESE 20 30 11 16 1004.9 1002.4 0.0
14/01:30pm 41.0 36.0 3.4 10 20.5 E 19 32 10 17 1005.3 1002.8 0.0
14/01:00pm 39.9 34.0 3.9 11 19.7 E 24 37 13 20 1005.7 1003.3 0.0
14/12:30pm 39.5 34.3 3.6 11 19.5 ESE 20 32 11 17 1006.4 1003.9 0.0
14/12:00pm 39.0 33.7 3.2 11 19.3 ESE 20 32 11 17 1006.7 1004.2 0.0
14/11:30am 38.1 32.9 3.8 12 18.5 E 20 32 11 17 1007.2 1004.7 0.0
14/11:00am 37.4 32.4 4.4 13 18.0 ESE 20 30 11 16 1007.7 1005.2 0.0
14/10:30am 36.7 31.2 3.8 13 17.6 E 22 32 12 17 1008.1 1005.6 0.0
14/10:00am 36.0 30.2 4.3 14 17.1 ESE 24 33 13 18 1008.6 1006.2 0.0
14/09:30am 34.8 28.4 3.4 14 16.6 E 26 39 14 21 1009.1 1006.7 0.0
14/09:00am 33.9 27.0 2.7 14 16.2 E 28 43 15 23 1009.4 1007.0 0.0
14/08:30am 32.9 25.7 2.9 15 15.5 ESE 30 39 16 21 1009.8 1007.3 0.0
14/08:00am 32.8 25.6 2.8 15 15.5 E 30 39 16 21 1010.0 1007.5 0.0
14/07:30am 31.4 23.8 2.6 16 14.7 ESE 32 41 17 22 1009.8 1007.3 0.0
14/07:00am 30.6 23.4 2.8 17 14.2 ESE 30 44 16 24 1009.9 1007.4 0.0
14/06:30am 29.7 23.1 4.4 20 13.2 ESE 28 37 15 20 1009.6 1007.1 0.0
14/06:00am 28.9 24.0 5.1 22 12.5 ESE 20 28 11 15 1009.3 1006.9 0.0
14/05:30am 28.2 23.6 5.7 24 11.9 ESE 19 26 10 14 1009.2 1006.8 0.0
14/05:00am 28.6 23.5 6.1 24 12.0 ESE 22 30 12 16 1008.7 1006.3 0.0
14/04:30am 28.9 23.5 6.3 24 12.1 ESE 24 32 13 17 1008.5 1006.0 0.0
14/04:00am 28.8 24.8 6.8 25 11.9 ESE 17 24 9 13 1008.0 1005.5 0.0
14/03:30am 29.5 24.6 6.8 24 12.3 ESE 22 30 12 16 1007.6 1005.1 0.0
14/03:00am 29.7 25.1 6.4 23 12.6 ESE 20 30 11 16 1007.3 1004.8 0.0
14/02:30am 30.2 25.3 6.8 23 12.7 ESE 22 30 12 16 1007.1 1004.6 0.0
14/02:00am 30.6 25.2 6.5 22 13.1 ESE 24 33 13 18 1006.6 1004.1 0.0
14/01:30am 31.1 25.1 6.9 22 13.2 ESE 28 37 15 20 1006.6 1004.1 0.0
14/01:00am 31.5 25.9 7.2 22 13.4 ESE 26 37 14 20 1006.7 1004.2 0.0
14/12:30am 32.2 25.8 7.1 21 13.9 SE 30 41 16 22 1006.8 1004.3 0.0
14/12:00am 32.6 27.1 7.4 21 14.0 SE 26 33 14 18 1007.0 1004.5 0.0
 
Date/Time
WST
Temp
°C
App
Temp
°C
Dew
Point
°C
Rel
Hum
%
Delta-T
°C
Wind Press
QNH
hPa
Press
MSL
hPa
Rain since
9am
mm
Dir  Spd
km/h
Gust
km/h
Spd
kts
Gust
kts
13/11:30pm 33.0 27.6 7.8 21 14.1 SE 26 32 14 17 1007.1 1004.6 0.0
13/11:00pm 33.5 28.1 8.2 21 14.3 SE 26 33 14 18 1007.3 1004.8 0.0
13/10:30pm 34.0 28.7 8.6 21 14.5 SE 26 33 14 18 1007.4 1004.9 0.0
13/10:00pm 34.4 28.7 8.2 20 14.9 SE 28 35 15 19 1007.6 1005.1 0.0
13/09:30pm 34.5 29.7 9.0 21 14.7 SE 24 30 13 16 1007.5 1005.0 0.0
13/09:00pm 34.9 31.2 10.0 22 14.6 SSE 20 28 11 15 1007.3 1004.8 0.0
13/08:30pm 35.4 32.0 10.4 22 14.7 SSE 19 22 10 12 1006.9 1004.4 0.0
13/08:00pm 36.3 32.7 10.5 21 15.3 SE 20 28 11 15 1006.8 1004.3 0.0
13/07:30pm 36.7 33.2 10.8 21 15.4 SSE 20 26 11 14 1006.6 1004.1 0.0
13/07:00pm 37.5 34.1 10.7 20 16.0 SE 19 22 10 12 1006.3 1003.8 0.0
13/06:30pm 38.5 34.6 10.8 19 16.6 SE 22 28 12 15 1006.0 1003.5 0.0
13/06:00pm 39.6 35.3 10.8 18 17.4 SE 24 32 13 17 1005.6 1003.2 0.0
13/05:30pm 40.3 35.6 10.6 17 17.9 SE 26 35 14 19 1005.3 1002.8 0.0
13/05:00pm 41.0 36.0 11.1 17 18.2 SE 28 33 15 18 1005.3 1002.8 0.0
13/04:30pm 41.0 36.3 12.0 18 17.9 ESE 28 37 15 20 1005.3 1002.8 0.0
13/04:00pm 41.4 36.8 12.3 18 18.1 ESE 28 41 15 22 1005.2 1002.7 0.0
13/03:30pm 41.9 37.4 12.7 18 18.2 SE 28 37 15 20 1005.4 1003.0 0.0
13/03:00pm 41.9 37.0 12.7 18 18.3 SE 30 41 16 22 1005.6 1003.2 0.0
13/02:30pm 41.0 36.6 12.8 19 17.6 ESE 28 43 15 23 1006.0 1003.5 0.0
13/02:00pm 40.6 35.9 13.3 20 17.1 ESE 30 41 16 22 1006.4 1003.9 0.0
13/01:30pm 40.7 36.3 14.1 21 16.8 ESE 30 43 16 23 1006.8 1004.3 0.0
13/01:04pm 39.6 35.1 13.9 22 16.2 ESE 30 48 16 26 1007.2 1004.7 0.0
13/01:00pm 40.0 35.3 14.2 21 16.4 ESE 32 48 17 26 1007.3 1004.8 0.0
13/12:30pm 40.3 35.4 15.2 23 16.1 ESE 35 54 19 29 1007.7 1005.2 0.0
13/12:25pm 39.2 34.5 14.9 23 15.5 ESE 33 54 18 29 1007.7 1005.2 0.0
13/12:00pm 39.0 33.9 14.7 23 15.5 ESE 35 48 19 26 1007.8 1005.3 0.0
13/11:30am 38.7 33.3 15.1 24 15.1 ESE 37 50 20 27 1008.0 1005.5 0.0

Other Formats:

Comma delimited format used in spreadsheet applications
http://www.bom.gov.au/fwo/IDW60801/IDW60801.94319.axf

JavaScript Object Notation format (JSON) in row-major order
http://www.bom.gov.au/fwo/IDW60801/IDW60801.94319.json